Time;durP1;ratioP1;P1;durP2;ratioP2;P2;SDS_P1;SDS_P2;PMS_P1;PMS_P2;Temp;Humidity;BMP_temperature;BMP_pressure;BME280_temperature;BME280_humidity;BME280_pressure;Samples;Min_cycle;Max_cycle;Signal;HPM_P1;HPM_P2
2023/08/01 00:01:32;;;;;;;7.15;5.60;;;18.30;99.90;;;;;;6211936;23;20331;-81
2023/08/01 00:03:58;;;;;;;8.70;6.10;;;18.30;99.90;;;;;;6211272;23;20374;-81
2023/08/01 00:06:24;;;;;;;8.05;5.90;;;18.30;99.90;;;;;;6211617;23;20005;-82
2023/08/01 00:08:51;;;;;;;8.48;7.05;;;18.30;99.90;;;;;;6212149;23;20001;-82
2023/08/01 00:11:16;;;;;;;6.53;5.43;;;18.40;99.90;;;;;;6185112;23;20004;-81
2023/08/01 00:13:43;;;;;;;6.90;5.13;;;18.30;99.90;;;;;;6211860;23;20007;-82
2023/08/01 00:16:08;;;;;;;10.98;6.22;;;18.30;99.90;;;;;;6185081;23;20008;-82
2023/08/01 00:18:35;;;;;;;9.20;6.07;;;18.30;99.90;;;;;;6211141;23;20004;-83
2023/08/01 00:21:00;;;;;;;8.00;5.47;;;18.30;99.90;;;;;;6211612;23;20047;-83
2023/08/01 00:23:26;;;;;;;13.93;6.95;;;18.30;99.90;;;;;;6211983;23;20005;-83
2023/08/01 00:25:52;;;;;;;7.40;6.63;;;18.20;99.90;;;;;;6213677;23;20008;-82
2023/08/01 00:28:18;;;;;;;9.10;5.28;;;18.20;99.90;;;;;;6213031;23;20013;-82
2023/08/01 00:30:44;;;;;;;5.55;4.57;;;18.20;99.90;;;;;;6213910;23;20458;-82
2023/08/01 00:33:09;;;;;;;7.68;3.97;;;18.20;99.90;;;;;;6212736;23;20008;-82
2023/08/01 00:35:35;;;;;;;5.15;3.33;;;18.20;99.90;;;;;;6213633;23;20001;-83
2023/08/01 00:38:01;;;;;;;6.50;3.28;;;18.10;99.90;;;;;;6187028;23;20441;-83
2023/08/01 00:40:33;;;;;;;5.00;3.65;;;18.10;99.90;;;;;;6186653;23;20474;-83
2023/08/01 00:42:59;;;;;;;4.55;3.45;;;18.00;99.90;;;;;;6213609;23;20027;-83
2023/08/01 00:45:26;;;;;;;6.20;3.60;;;18.00;99.90;;;;;;6186609;23;20005;-84
2023/08/01 00:47:53;;;;;;;8.05;3.95;;;18.00;99.90;;;;;;6186746;23;20327;-83
2023/08/01 00:50:22;;;;;;;6.22;3.25;;;17.90;99.90;;;;;;6186524;23;20007;-82
2023/08/01 00:52:50;;;;;;;5.47;3.28;;;17.90;99.90;;;;;;6213316;23;20094;-83
2023/08/01 00:55:16;;;;;;;5.57;3.42;;;17.80;99.90;;;;;;6212924;23;20012;-83
2023/08/01 00:57:42;;;;;;;7.80;3.85;;;17.80;99.90;;;;;;6213186;23;20001;-84
2023/08/01 01:00:08;;;;;;;6.95;3.70;;;17.80;99.90;;;;;;6213125;23;20139;-83
2023/08/01 01:02:34;;;;;;;9.48;3.72;;;17.80;99.90;;;;;;6212768;23;20001;-83
2023/08/01 01:05:01;;;;;;;7.47;4.05;;;17.80;99.90;;;;;;6213227;23;20008;-82
2023/08/01 01:07:28;;;;;;;6.47;4.10;;;17.80;99.90;;;;;;6212862;23;19997;-83
2023/08/01 01:09:54;;;;;;;8.00;3.85;;;17.80;99.90;;;;;;6213386;23;20076;-82
2023/08/01 01:12:19;;;;;;;7.05;4.82;;;17.80;99.90;;;;;;6211804;23;20039;-82
2023/08/01 01:14:45;;;;;;;6.90;3.88;;;17.80;99.90;;;;;;6212588;23;20008;-82
2023/08/01 01:17:10;;;;;;;8.95;3.88;;;17.80;99.90;;;;;;6211522;23;20067;-83
2023/08/01 01:19:36;;;;;;;8.70;4.97;;;17.80;99.90;;;;;;6212108;23;20071;-83
2023/08/01 01:22:04;;;;;;;6.32;4.95;;;17.80;99.90;;;;;;6212036;23;20143;-83
2023/08/01 01:24:31;;;;;;;6.80;4.50;;;17.80;99.90;;;;;;6212751;23;20082;-82
2023/08/01 01:26:59;;;;;;;8.27;5.50;;;17.80;99.90;;;;;;6212407;23;20467;-83
2023/08/01 01:29:26;;;;;;;8.07;5.65;;;17.80;99.90;;;;;;6212254;23;20004;-83
2023/08/01 01:31:52;;;;;;;6.82;5.03;;;17.80;99.90;;;;;;6212337;23;20008;-82
2023/08/01 01:34:18;;;;;;;7.47;4.97;;;17.80;99.90;;;;;;6211740;23;20281;-82
2023/08/01 01:36:44;;;;;;;8.05;6.32;;;17.80;99.90;;;;;;6212545;23;20457;-82
2023/08/01 01:39:09;;;;;;;7.22;5.78;;;17.80;99.90;;;;;;6210852;23;20043;-82
2023/08/01 01:41:35;;;;;;;6.82;4.78;;;17.80;99.90;;;;;;6211675;23;19996;-81
2023/08/01 01:44:01;;;;;;;10.15;6.25;;;17.80;99.90;;;;;;6212181;23;20441;-81
2023/08/01 01:46:26;;;;;;;8.15;5.28;;;17.80;99.90;;;;;;6211341;23;20505;-82
2023/08/01 01:48:52;;;;;;;8.45;5.05;;;17.80;99.90;;;;;;6210879;23;20083;-82
2023/08/01 01:51:18;;;;;;;10.38;5.40;;;17.80;99.90;;;;;;6210356;23;20418;-82
2023/08/01 01:53:43;;;;;;;8.07;5.70;;;17.80;99.90;;;;;;6211951;23;20009;-82
2023/08/01 01:56:09;;;;;;;7.90;4.97;;;17.80;99.90;;;;;;6212326;23;20414;-82
2023/08/01 01:58:34;;;;;;;9.30;4.80;;;17.70;99.90;;;;;;6212816;23;20422;-82
2023/08/01 02:01:00;;;;;;;9.45;4.80;;;17.60;99.90;;;;;;6212114;23;20008;-82
2023/08/01 02:03:25;;;;;;;10.27;5.40;;;17.60;99.90;;;;;;6212413;23;20004;-81
2023/08/01 02:05:51;;;;;;;8.30;5.63;;;17.50;99.90;;;;;;6212836;23;20015;-82
2023/08/01 02:08:17;;;;;;;11.73;6.70;;;17.40;99.90;;;;;;6212319;23;20333;-82
2023/08/01 02:10:42;;;;;;;6.72;5.07;;;17.40;99.90;;;;;;6212536;23;20415;-82
2023/08/01 02:13:08;;;;;;;8.70;6.28;;;17.30;99.90;;;;;;6211919;23;20023;-82
2023/08/01 02:15:34;;;;;;;11.90;6.38;;;17.30;99.90;;;;;;6211586;23;20005;-82
2023/08/01 02:18:00;;;;;;;11.70;6.68;;;17.20;99.90;;;;;;6212622;23;20308;-81
2023/08/01 02:20:26;;;;;;;13.07;6.53;;;17.20;99.90;;;;;;6212208;23;20000;-82
2023/08/01 02:22:51;;;;;;;12.60;6.35;;;17.10;99.90;;;;;;6212717;23;20055;-82
2023/08/01 02:25:17;;;;;;;8.18;5.57;;;17.10;99.90;;;;;;6211560;23;20012;-82
2023/08/01 02:27:43;;;;;;;12.27;7.15;;;17.10;99.90;;;;;;6212593;23;19996;-82
2023/08/01 02:30:09;;;;;;;11.88;6.70;;;17.10;99.90;;;;;;6211463;23;20078;-81
2023/08/01 02:32:34;;;;;;;10.73;6.28;;;17.10;99.90;;;;;;6212228;23;20079;-82
2023/08/01 02:35:00;;;;;;;6.82;5.93;;;17.10;99.90;;;;;;6212289;23;20004;-82
2023/08/01 02:37:25;;;;;;;11.45;6.65;;;17.00;99.90;;;;;;6212077;23;20008;-81
2023/08/01 02:39:51;;;;;;;10.65;6.80;;;17.00;99.90;;;;;;6212156;23;20028;-81
2023/08/01 02:42:16;;;;;;;10.00;6.32;;;16.90;99.90;;;;;;6211740;23;20011;-81
2023/08/01 02:44:42;;;;;;;8.50;6.03;;;16.90;99.90;;;;;;6185327;23;20088;-81
2023/08/01 02:47:08;;;;;;;7.93;6.55;;;16.90;99.90;;;;;;6211812;23;20441;-82
2023/08/01 02:49:33;;;;;;;8.52;6.68;;;16.90;99.90;;;;;;6212326;23;20036;-82
2023/08/01 02:51:59;;;;;;;14.90;7.38;;;16.90;99.90;;;;;;6212309;23;20055;-81
2023/08/01 02:54:24;;;;;;;11.23;7.00;;;16.80;99.90;;;;;;6211667;23;20020;-82
2023/08/01 02:56:51;;;;;;;12.48;7.93;;;16.80;99.90;;;;;;6212395;23;20382;-81
2023/08/01 02:59:18;;;;;;;11.23;7.75;;;16.80;99.90;;;;;;6211404;23;20000;-81
2023/08/01 03:01:43;;;;;;;16.52;8.55;;;16.80;99.90;;;;;;6212425;23;20079;-81
2023/08/01 03:04:11;;;;;;;10.65;6.75;;;16.80;99.90;;;;;;6184894;23;20151;-81
2023/08/01 03:06:37;;;;;;;12.45;8.02;;;16.80;99.90;;;;;;6211785;23;20024;-82
2023/08/01 03:09:07;;;;;;;11.10;6.85;;;16.80;99.90;;;;;;6211391;23;20008;-81
2023/08/01 03:11:33;;;;;;;14.00;7.07;;;16.80;99.90;;;;;;6211670;23;20000;-81
2023/08/01 03:13:58;;;;;;;14.52;6.60;;;16.80;99.90;;;;;;6211160;23;20488;-81
2023/08/01 03:16:24;;;;;;;11.07;7.07;;;16.80;99.90;;;;;;6211425;23;20000;-81
2023/08/01 03:18:49;;;;;;;10.88;7.28;;;16.90;99.90;;;;;;6211536;23;20395;-82
2023/08/01 03:21:15;;;;;;;11.85;7.45;;;16.90;99.90;;;;;;6211434;23;20428;-81
2023/08/01 03:23:40;;;;;;;9.45;5.75;;;16.80;99.90;;;;;;6185194;23;20007;-82
2023/08/01 03:26:06;;;;;;;14.63;6.13;;;16.90;99.90;;;;;;6211767;23;20441;-81
2023/08/01 03:28:31;;;;;;;14.95;7.18;;;17.00;99.90;;;;;;6211162;23;20440;-81
2023/08/01 03:30:57;;;;;;;14.00;7.18;;;17.00;99.90;;;;;;6211790;23;20445;-81
2023/08/01 03:33:23;;;;;;;10.48;7.10;;;17.00;99.90;;;;;;6211448;23;20419;-82
2023/08/01 03:35:48;;;;;;;11.48;7.70;;;17.10;99.90;;;;;;6211959;23;20004;-80
2023/08/01 03:38:14;;;;;;;13.73;7.70;;;17.10;99.90;;;;;;6211360;23;20363;-81
2023/08/01 03:40:40;;;;;;;13.10;7.40;;;17.10;99.90;;;;;;6185476;23;20008;-81
2023/08/01 03:43:06;;;;;;;16.42;7.10;;;17.10;99.90;;;;;;6210968;23;20066;-81
2023/08/01 03:45:33;;;;;;;16.40;7.35;;;17.20;99.90;;;;;;6211922;23;20001;-82
2023/08/01 03:47:59;;;;;;;13.95;6.72;;;17.20;99.90;;;;;;6211875;23;20008;-82
2023/08/01 03:50:25;;;;;;;16.33;7.28;;;17.20;99.90;;;;;;6211690;23;20574;-82
2023/08/01 03:52:51;;;;;;;9.27;6.57;;;17.20;99.90;;;;;;6211437;23;20008;-82
2023/08/01 03:55:17;;;;;;;14.05;6.63;;;17.20;99.90;;;;;;6211067;23;20005;-81
2023/08/01 03:57:42;;;;;;;12.43;7.05;;;17.10;99.90;;;;;;6210861;23;20001;-82
2023/08/01 04:00:14;;;;;;;12.00;7.15;;;17.10;99.90;;;;;;6213593;23;20441;-81
2023/08/01 04:02:41;;;;;;;12.70;6.28;;;17.10;99.90;;;;;;6213898;23;19997;-81
2023/08/01 04:05:08;;;;;;;13.18;6.78;;;17.10;99.90;;;;;;6213541;23;20001;-81
2023/08/01 04:07:34;;;;;;;14.93;7.00;;;17.10;99.90;;;;;;6213588;23;20004;-81
2023/08/01 04:10:00;;;;;;;16.05;7.40;;;17.10;99.90;;;;;;6213162;23;20001;-81
2023/08/01 04:12:25;;;;;;;12.30;6.72;;;17.10;99.90;;;;;;6213361;23;20004;-81
2023/08/01 04:14:51;;;;;;;15.95;6.93;;;17.10;99.90;;;;;;6213813;23;20004;-83
2023/08/01 04:17:17;;;;;;;12.25;6.88;;;17.20;99.90;;;;;;6187051;23;20086;-82
2023/08/01 04:19:42;;;;;;;15.82;7.55;;;17.10;99.90;;;;;;6214071;23;20054;-81
2023/08/01 04:22:09;;;;;;;13.38;6.70;;;17.20;99.90;;;;;;6213496;23;20120;-81
2023/08/01 04:24:34;;;;;;;15.32;7.20;;;17.20;99.90;;;;;;6186949;23;20390;-82
2023/08/01 04:27:00;;;;;;;14.85;7.25;;;17.20;99.90;;;;;;6213351;23;20001;-82
2023/08/01 04:29:25;;;;;;;15.95;7.00;;;17.30;99.90;;;;;;6213236;23;20000;-82
2023/08/01 04:31:51;;;;;;;11.45;5.93;;;17.30;99.90;;;;;;6213700;23;20407;-82
2023/08/01 04:34:16;;;;;;;13.45;6.85;;;17.30;99.90;;;;;;6186260;23;20008;-81
2023/08/01 04:36:42;;;;;;;12.05;6.38;;;17.30;99.90;;;;;;6186671;23;20419;-82
2023/08/01 04:39:08;;;;;;;13.70;5.95;;;17.30;99.90;;;;;;6212095;23;20745;-81
2023/08/01 04:41:33;;;;;;;16.13;7.45;;;17.30;99.90;;;;;;6213189;23;20331;-82
2023/08/01 04:43:59;;;;;;;14.32;6.85;;;17.30;99.90;;;;;;6213327;23;20005;-82
2023/08/01 04:46:24;;;;;;;14.15;6.03;;;17.30;99.90;;;;;;6213116;23;20422;-82
2023/08/01 04:48:50;;;;;;;10.40;5.95;;;17.30;99.90;;;;;;6213400;23;20004;-83
2023/08/01 04:51:15;;;;;;;8.55;6.18;;;17.30;99.90;;;;;;6212629;23;20015;-82
2023/08/01 04:53:41;;;;;;;15.00;6.97;;;17.30;99.90;;;;;;6212558;23;20075;-81
2023/08/01 04:56:06;;;;;;;14.60;7.05;;;17.30;99.90;;;;;;6212935;23;20005;-81
2023/08/01 04:58:32;;;;;;;13.13;5.78;;;17.30;99.90;;;;;;6186762;23;20008;-83
2023/08/01 05:00:57;;;;;;;8.75;5.22;;;17.30;99.90;;;;;;6212818;23;20423;-82
2023/08/01 05:03:23;;;;;;;15.32;6.13;;;17.30;99.90;;;;;;6213054;23;20000;-82
2023/08/01 05:05:49;;;;;;;11.93;6.47;;;17.30;99.90;;;;;;6212983;23;20008;-81
2023/08/01 05:08:14;;;;;;;14.65;6.60;;;17.40;99.90;;;;;;6211673;23;20004;-81
2023/08/01 05:10:40;;;;;;;11.20;6.28;;;17.30;99.90;;;;;;6212931;23;20007;-82
2023/08/01 05:13:05;;;;;;;13.00;6.07;;;17.40;99.90;;;;;;6212933;23;20039;-83
2023/08/01 05:15:31;;;;;;;16.15;6.78;;;17.40;99.90;;;;;;6213205;23;20005;-82
2023/08/01 05:17:57;;;;;;;16.30;7.05;;;17.40;99.90;;;;;;6213228;23;20438;-82
2023/08/01 05:20:22;;;;;;;12.75;7.10;;;17.40;99.90;;;;;;6212953;23;20005;-83
2023/08/01 05:22:48;;;;;;;11.93;5.82;;;17.40;99.90;;;;;;6212846;23;20007;-84
2023/08/01 05:25:13;;;;;;;10.88;6.93;;;17.50;99.90;;;;;;6212726;23;20001;-82
2023/08/01 05:27:39;;;;;;;9.02;5.95;;;17.50;99.90;;;;;;6213131;23;20004;-82
2023/08/01 05:30:05;;;;;;;11.10;6.28;;;17.50;99.90;;;;;;6213042;23;20011;-82
2023/08/01 05:32:30;;;;;;;12.55;6.65;;;17.60;99.90;;;;;;6213143;23;20001;-82
2023/08/01 05:34:56;;;;;;;13.25;6.82;;;17.70;99.90;;;;;;6213331;23;20012;-83
2023/08/01 05:37:21;;;;;;;13.77;7.32;;;17.70;99.90;;;;;;6212098;23;20001;-82
2023/08/01 05:39:47;;;;;;;12.55;7.10;;;17.80;99.90;;;;;;6212657;23;20008;-83
2023/08/01 05:42:13;;;;;;;11.77;8.20;;;17.90;99.90;;;;;;6212109;23;20000;-83
2023/08/01 05:44:38;;;;;;;10.05;6.20;;;17.90;99.90;;;;;;6212279;23;20389;-83
2023/08/01 05:47:04;;;;;;;12.27;6.65;;;17.90;99.90;;;;;;6212386;23;20080;-83
2023/08/01 05:49:30;;;;;;;12.48;7.63;;;18.00;99.90;;;;;;6212258;23;20054;-84
2023/08/01 05:51:55;;;;;;;9.88;7.18;;;18.00;99.90;;;;;;6211994;23;20050;-82
2023/08/01 05:54:21;;;;;;;11.93;7.68;;;18.00;99.90;;;;;;6211931;23;20017;-83
2023/08/01 05:56:46;;;;;;;12.43;8.50;;;18.00;99.90;;;;;;6212529;23;20326;-82
2023/08/01 05:59:12;;;;;;;13.18;7.85;;;18.10;99.90;;;;;;6212149;23;20008;-81
2023/08/01 06:01:38;;;;;;;15.18;8.55;;;18.20;99.90;;;;;;6212516;23;20076;-80
2023/08/01 06:04:03;;;;;;;14.55;8.07;;;18.30;99.90;;;;;;6212507;23;20011;-81
2023/08/01 06:06:29;;;;;;;15.82;7.75;;;18.50;99.90;;;;;;6212432;23;20004;-81
2023/08/01 06:08:55;;;;;;;14.07;8.60;;;18.50;99.90;;;;;;6212825;23;20110;-81
2023/08/01 06:11:21;;;;;;;12.35;7.75;;;18.50;99.90;;;;;;6212045;23;20733;-80
2023/08/01 06:13:47;;;;;;;13.57;7.95;;;18.50;99.90;;;;;;6212359;23;20012;-80
2023/08/01 06:16:12;;;;;;;15.00;8.18;;;18.50;99.90;;;;;;6212124;23;20005;-80
2023/08/01 06:18:38;;;;;;;15.48;7.68;;;18.40;99.90;;;;;;6212274;23;20428;-80
2023/08/01 06:21:03;;;;;;;13.05;6.30;;;18.40;99.90;;;;;;6211260;23;20009;-80
2023/08/01 06:23:29;;;;;;;13.88;6.93;;;18.40;99.90;;;;;;6212735;23;20009;-80
2023/08/01 06:25:54;;;;;;;12.38;6.72;;;18.40;99.90;;;;;;6212610;23;20028;-80
2023/08/01 06:28:20;;;;;;;14.05;6.70;;;18.40;99.90;;;;;;6211031;23;20005;-80
2023/08/01 06:30:46;;;;;;;14.32;7.43;;;18.40;99.90;;;;;;6185329;23;20047;-80
2023/08/01 06:33:11;;;;;;;11.98;6.90;;;18.40;99.90;;;;;;6211289;23;20008;-80
2023/08/01 06:35:37;;;;;;;13.35;6.70;;;18.50;99.90;;;;;;6211757;23;20338;-80
2023/08/01 06:38:02;;;;;;;14.35;6.32;;;18.50;99.90;;;;;;6212035;23;20024;-80
2023/08/01 06:40:28;;;;;;;13.48;6.97;;;18.50;99.90;;;;;;6211831;23;20449;-80
2023/08/01 06:42:53;;;;;;;8.90;5.57;;;18.60;99.90;;;;;;6212276;23;20000;-79
2023/08/01 06:45:19;;;;;;;18.08;6.32;;;18.60;99.90;;;;;;6211737;23;20000;-80
2023/08/01 06:47:44;;;;;;;9.55;4.97;;;18.70;99.90;;;;;;6212585;23;20051;-80
2023/08/01 06:50:10;;;;;;;10.80;5.97;;;18.70;99.90;;;;;;6210233;23;19996;-81
2023/08/01 06:52:35;;;;;;;12.07;5.13;;;18.70;99.90;;;;;;6212168;23;20314;-81
2023/08/01 06:55:01;;;;;;;11.73;5.90;;;18.70;99.90;;;;;;6212200;23;20011;-80
2023/08/01 06:57:27;;;;;;;15.70;6.57;;;18.70;99.90;;;;;;6212089;23;20338;-81
2023/08/01 06:59:53;;;;;;;9.15;5.25;;;18.70;99.90;;;;;;6212455;23;20004;-80
2023/08/01 07:02:18;;;;;;;11.98;6.32;;;18.80;99.90;;;;;;6211701;23;20001;-80
2023/08/01 07:04:44;;;;;;;13.18;5.30;;;18.80;99.90;;;;;;6211788;23;20504;-81
2023/08/01 07:07:09;;;;;;;12.35;5.50;;;18.80;99.90;;;;;;6184357;23;20039;-80
2023/08/01 07:09:35;;;;;;;11.38;4.97;;;18.80;99.90;;;;;;6211814;23;20012;-81
2023/08/01 07:12:01;;;;;;;14.32;5.50;;;18.80;99.90;;;;;;6212023;23;20032;-81
2023/08/01 07:14:26;;;;;;;11.50;5.45;;;18.90;99.90;;;;;;6211244;23;20036;-81
2023/08/01 07:16:52;;;;;;;6.40;4.40;;;18.90;99.90;;;;;;6209350;23;20009;-80
2023/08/01 07:19:17;;;;;;;5.28;4.32;;;19.00;99.90;;;;;;6209805;23;20004;-80
2023/08/01 07:21:45;;;;;;;9.18;4.45;;;19.00;99.90;;;;;;6210561;23;20079;-81
2023/08/01 07:24:10;;;;;;;8.80;3.67;;;19.20;99.90;;;;;;6184285;23;20004;-80
2023/08/01 07:26:36;;;;;;;10.48;4.80;;;19.20;99.90;;;;;;6211672;23;20039;-81
2023/08/01 07:29:01;;;;;;;11.07;3.75;;;19.30;99.90;;;;;;6211272;23;20001;-81
2023/08/01 07:31:27;;;;;;;8.35;3.75;;;19.40;99.90;;;;;;6209819;23;20147;-81
2023/08/01 07:33:52;;;;;;;10.60;3.50;;;19.40;99.90;;;;;;6211094;23;20012;-81
2023/08/01 07:36:18;;;;;;;8.75;3.75;;;19.40;99.90;;;;;;6209910;23;20743;-81
2023/08/01 07:38:44;;;;;;;8.60;3.45;;;19.40;99.90;;;;;;6211004;23;19996;-81
2023/08/01 07:41:10;;;;;;;8.45;3.42;;;19.40;99.90;;;;;;6211260;23;20007;-81
2023/08/01 07:43:35;;;;;;;8.40;3.22;;;19.40;99.90;;;;;;6210081;23;20079;-80
2023/08/01 07:46:01;;;;;;;7.93;3.20;;;19.40;99.90;;;;;;6211463;23;20054;-81
2023/08/01 07:48:26;;;;;;;7.03;3.08;;;19.50;99.90;;;;;;6210967;23;20052;-81
2023/08/01 07:50:52;;;;;;;8.60;3.38;;;19.50;99.90;;;;;;6210978;23;20004;-81
2023/08/01 07:53:18;;;;;;;9.23;3.60;;;19.40;99.90;;;;;;6209285;23;20023;-81
2023/08/01 07:55:44;;;;;;;8.55;3.30;;;19.50;99.90;;;;;;6211144;23;20086;-80
2023/08/01 07:58:09;;;;;;;7.88;3.35;;;19.60;99.90;;;;;;6184529;23;20001;-80
2023/08/01 08:00:35;;;;;;;7.60;3.28;;;19.70;99.90;;;;;;6211485;23;20308;-81
2023/08/01 08:03:01;;;;;;;10.50;2.80;;;19.80;99.90;;;;;;6210906;23;20059;-80
2023/08/01 08:05:27;;;;;;;9.32;2.35;;;20.00;99.90;;;;;;6182560;23;20036;-81
2023/08/01 08:07:52;;;;;;;6.60;2.25;;;20.10;99.90;;;;;;6211356;23;20427;-81
2023/08/01 08:10:18;;;;;;;6.45;3.25;;;20.30;99.90;;;;;;6210412;23;20005;-80
2023/08/01 08:12:43;;;;;;;8.48;2.35;;;20.30;99.90;;;;;;6209633;23;20059;-82
2023/08/01 08:15:09;;;;;;;9.43;2.90;;;20.30;99.90;;;;;;6173459;23;20334;-83
2023/08/01 08:17:35;;;;;;;6.43;2.38;;;20.20;99.90;;;;;;6209965;23;20008;-83
2023/08/01 08:20:00;;;;;;;6.43;3.10;;;20.00;99.90;;;;;;6211697;23;20001;-82
2023/08/01 08:22:27;;;;;;;7.82;2.90;;;19.80;99.90;;;;;;6211446;23;20004;-82
2023/08/01 08:24:52;;;;;;;11.10;3.10;;;19.70;99.90;;;;;;6211753;23;20000;-82
2023/08/01 08:27:18;;;;;;;7.75;2.60;;;19.50;99.90;;;;;;6209727;23;20070;-82
2023/08/01 08:29:43;;;;;;;5.85;3.45;;;19.50;99.90;;;;;;6211512;23;20032;-82
2023/08/01 08:32:09;;;;;;;6.47;3.58;;;19.40;99.90;;;;;;6210735;23;20335;-82
2023/08/01 08:34:34;;;;;;;9.30;2.90;;;19.40;99.90;;;;;;6210957;23;20514;-82
2023/08/01 08:37:00;;;;;;;9.60;3.08;;;19.50;99.90;;;;;;6211011;23;20184;-82
2023/08/01 08:39:25;;;;;;;7.88;3.50;;;19.60;99.90;;;;;;6209913;23;20011;-82
2023/08/01 08:41:52;;;;;;;8.90;3.80;;;19.60;99.90;;;;;;6211365;23;20004;-82
2023/08/01 08:44:20;;;;;;;7.68;3.22;;;19.70;99.90;;;;;;6210954;23;20018;-82
2023/08/01 08:46:51;;;;;;;6.05;2.60;;;19.70;99.90;;;;;;6212855;23;20060;-83
2023/08/01 08:49:21;;;;;;;8.82;2.83;;;19.70;99.90;;;;;;6210567;23;20027;-82
2023/08/01 08:51:47;;;;;;;8.60;2.38;;;19.70;99.90;;;;;;6186905;23;20011;-82
2023/08/01 08:54:14;;;;;;;9.07;2.25;;;19.80;99.90;;;;;;6212482;23;20092;-82
2023/08/01 08:56:43;;;;;;;5.38;2.03;;;19.90;99.90;;;;;;6213576;23;20419;-83
2023/08/01 08:59:11;;;;;;;7.50;2.35;;;20.00;99.90;;;;;;6211658;23;20011;-82
2023/08/01 09:01:38;;;;;;;6.38;1.80;;;20.00;99.90;;;;;;6212171;23;20012;-83
2023/08/01 09:04:03;;;;;;;6.25;2.10;;;20.10;99.90;;;;;;6185569;23;20537;-81
2023/08/01 09:06:37;;;;;;;6.28;2.08;;;20.20;99.90;;;;;;6213014;23;20127;-82
2023/08/01 09:09:12;;;;;;;6.18;1.50;;;20.30;99.90;;;;;;6212910;23;20001;-81
2023/08/01 09:11:51;;;;;;;7.40;2.30;;;20.30;99.90;;;;;;6211678;23;20083;-81
2023/08/01 09:14:18;;;;;;;5.75;1.85;;;20.50;99.90;;;;;;6186441;23;20020;-82
2023/08/01 09:16:44;;;;;;;3.65;1.45;;;20.50;99.90;;;;;;6212794;23;20054;-84
2023/08/01 09:19:12;;;;;;;4.10;1.58;;;20.50;99.90;;;;;;6185425;23;20011;-82
2023/08/01 09:21:39;;;;;;;3.08;1.00;;;20.50;99.90;;;;;;6211874;23;20489;-82
2023/08/01 09:24:09;;;;;;;5.45;1.52;;;20.50;99.90;;;;;;6212504;23;20079;-82
2023/08/01 09:26:34;;;;;;;7.60;1.88;;;20.70;99.90;;;;;;6186126;23;20005;-82
2023/08/01 09:29:00;;;;;;;3.03;1.70;;;20.80;99.90;;;;;;6211613;23;20000;-82
2023/08/01 09:31:28;;;;;;;4.03;1.55;;;20.90;99.90;;;;;;6212795;23;20007;-82
2023/08/01 09:33:53;;;;;;;3.38;1.10;;;20.90;99.70;;;;;;6211282;23;20086;-83
2023/08/01 09:36:23;;;;;;;3.97;1.52;;;21.00;99.20;;;;;;6185050;23;20331;-82
2023/08/01 09:38:49;;;;;;;5.32;1.20;;;20.90;99.30;;;;;;6185797;23;20009;-84
2023/08/01 09:41:19;;;;;;;4.88;1.55;;;21.00;99.40;;;;;;6211023;23;20406;-83
2023/08/01 09:43:49;;;;;;;4.28;1.70;;;21.00;99.00;;;;;;6184085;23;20421;-83
2023/08/01 09:46:15;;;;;;;6.95;1.58;;;21.00;99.00;;;;;;6212265;23;20004;-82
2023/08/01 09:48:41;;;;;;;2.80;0.88;;;21.00;98.80;;;;;;6212680;23;20421;-82
2023/08/01 09:51:11;;;;;;;6.95;1.85;;;21.00;98.80;;;;;;6211679;23;20008;-83
2023/08/01 09:53:48;;;;;;;4.97;1.55;;;20.90;98.70;;;;;;6211605;23;20020;-82
2023/08/01 09:56:17;;;;;;;4.97;2.28;;;20.90;98.60;;;;;;6210654;23;20363;-82
2023/08/01 09:58:44;;;;;;;3.67;1.48;;;20.90;98.40;;;;;;6185070;23;20441;-83
2023/08/01 10:01:10;;;;;;;5.53;1.70;;;20.80;98.50;;;;;;6211984;23;20088;-82
2023/08/01 10:03:36;;;;;;;5.40;1.70;;;20.80;98.50;;;;;;6212486;23;20649;-82
2023/08/01 10:06:02;;;;;;;4.65;1.58;;;20.80;98.50;;;;;;6210554;23;20031;-81
2023/08/01 10:08:29;;;;;;;7.38;2.10;;;20.90;98.70;;;;;;6211943;23;20073;-82
2023/08/01 10:10:56;;;;;;;5.82;1.60;;;21.00;98.70;;;;;;6212585;23;20084;-82
2023/08/01 10:13:24;;;;;;;3.78;1.45;;;21.10;98.70;;;;;;6211545;23;20059;-81
2023/08/01 10:15:51;;;;;;;5.07;1.98;;;21.20;98.60;;;;;;6185732;23;20028;-82
2023/08/01 10:18:17;;;;;;;5.00;1.60;;;21.30;98.40;;;;;;6211025;23;20001;-82
2023/08/01 10:20:44;;;;;;;5.03;1.88;;;21.20;98.50;;;;;;6212607;23;20001;-82
2023/08/01 10:23:11;;;;;;;7.38;2.15;;;21.10;98.30;;;;;;6212172;23;20465;-81
2023/08/01 10:25:38;;;;;;;5.47;1.65;;;21.00;98.50;;;;;;6211802;23;20012;-81
2023/08/01 10:28:06;;;;;;;6.40;1.90;;;21.00;98.50;;;;;;6209359;23;20079;-81
2023/08/01 10:30:32;;;;;;;3.58;1.45;;;21.00;98.10;;;;;;6211959;23;20011;-82
2023/08/01 10:32:59;;;;;;;3.95;1.25;;;20.90;97.30;;;;;;6212033;23;20008;-82
2023/08/01 10:35:38;;;;;;;5.35;1.52;;;21.00;97.40;;;;;;6212161;23;20422;-81
2023/08/01 10:38:06;;;;;;;5.93;1.60;;;21.00;97.40;;;;;;6211095;23;20430;-81
2023/08/01 10:40:40;;;;;;;3.33;1.50;;;21.00;97.00;;;;;;6211670;23;19997;-82
2023/08/01 10:43:06;;;;;;;9.02;1.50;;;21.00;97.20;;;;;;6211682;23;20005;-81
2023/08/01 10:45:32;;;;;;;4.40;1.70;;;21.00;97.40;;;;;;6212120;23;20005;-82
2023/08/01 10:48:09;;;;;;;7.60;2.10;;;21.00;97.10;;;;;;6211276;23;20001;-81
2023/08/01 10:50:34;;;;;;;4.60;1.67;;;20.90;97.00;;;;;;6183877;23;20375;-82
2023/08/01 10:53:08;;;;;;;4.55;1.40;;;20.80;97.40;;;;;;6210428;23;20016;-81
2023/08/01 10:55:42;;;;;;;3.92;1.38;;;20.90;97.30;;;;;;6211378;23;20024;-81
2023/08/01 10:58:08;;;;;;;5.57;2.13;;;21.00;97.10;;;;;;6211184;23;20804;-81
2023/08/01 11:00:34;;;;;;;7.75;2.13;;;21.20;96.90;;;;;;6209960;23;20075;-81
2023/08/01 11:02:59;;;;;;;7.05;2.03;;;21.20;96.80;;;;;;6210751;23;20001;-81
2023/08/01 11:05:26;;;;;;;6.25;2.05;;;21.20;96.80;;;;;;6211539;23;20001;-81
2023/08/01 11:08:00;;;;;;;4.70;1.52;;;21.30;97.00;;;;;;6211900;23;20000;-79
2023/08/01 11:10:28;;;;;;;5.40;1.83;;;21.30;96.80;;;;;;6210747;23;20135;-81
2023/08/01 11:12:54;;;;;;;4.57;1.50;;;21.30;96.10;;;;;;6210618;23;20003;-80
2023/08/01 11:15:20;;;;;;;7.53;2.25;;;21.30;96.30;;;;;;6184620;23;20010;-80
2023/08/01 11:17:51;;;;;;;5.30;1.63;;;21.30;96.20;;;;;;6211484;23;20076;-80
2023/08/01 11:20:19;;;;;;;4.85;1.38;;;21.20;96.10;;;;;;6184730;23;20058;-80
2023/08/01 11:23:00;;;;;;;7.28;1.80;;;21.20;96.50;;;;;;6184168;23;20478;-80
2023/08/01 11:25:40;;;;;;;4.28;1.52;;;21.20;96.20;;;;;;6211070;23;20028;-80
2023/08/01 11:28:08;;;;;;;6.13;1.58;;;21.30;96.30;;;;;;6211410;23;20000;-80
2023/08/01 11:30:35;;;;;;;4.85;2.05;;;21.30;96.70;;;;;;6185337;23;20017;-80
2023/08/01 11:33:12;;;;;;;7.78;2.20;;;21.50;96.60;;;;;;6210853;23;20434;-80
2023/08/01 11:35:39;;;;;;;6.18;1.65;;;21.60;96.60;;;;;;6209916;23;20086;-81
2023/08/01 11:38:06;;;;;;;7.32;1.42;;;21.70;96.50;;;;;;6210308;23;19999;-80
2023/08/01 11:40:32;;;;;;;5.10;1.92;;;21.80;96.50;;;;;;6211275;23;19997;-79
2023/08/01 11:42:58;;;;;;;7.43;1.67;;;21.80;95.90;;;;;;6185123;23;20430;-79
2023/08/01 11:45:24;;;;;;;6.43;1.98;;;21.70;95.60;;;;;;6209560;23;20004;-79
2023/08/01 11:47:50;;;;;;;3.67;1.73;;;21.70;95.70;;;;;;6184967;23;20005;-78
2023/08/01 11:50:23;;;;;;;4.63;1.25;;;21.80;96.00;;;;;;6184850;23;20331;-78
2023/08/01 11:52:48;;;;;;;4.25;1.55;;;22.00;95.80;;;;;;6185267;23;20389;-77
2023/08/01 11:55:26;;;;;;;3.33;1.58;;;22.10;95.60;;;;;;6207844;23;20012;-80
2023/08/01 11:57:58;;;;;;;4.13;1.50;;;22.30;94.80;;;;;;6185000;23;20001;-79
2023/08/01 12:00:27;;;;;;;5.70;1.20;;;22.20;94.60;;;;;;6184598;23;20012;-76
2023/08/01 12:03:03;;;;;;;4.90;1.08;;;22.20;94.30;;;;;;6211707;23;20062;-80
2023/08/01 12:05:29;;;;;;;4.57;1.70;;;22.20;94.00;;;;;;6185060;23;20004;-81
2023/08/01 12:07:55;;;;;;;3.72;2.10;;;22.10;94.10;;;;;;6210642;23;20005;-81
2023/08/01 12:10:20;;;;;;;3.05;1.45;;;22.10;94.00;;;;;;6210893;23;20415;-80
2023/08/01 12:12:48;;;;;;;4.85;1.75;;;22.10;93.90;;;;;;6211794;23;20004;-79
2023/08/01 12:15:15;;;;;;;6.07;1.70;;;22.20;93.70;;;;;;6183606;23;20434;-79
2023/08/01 12:17:41;;;;;;;5.40;1.17;;;22.30;93.60;;;;;;6183415;23;20448;-78
2023/08/01 12:20:07;;;;;;;4.28;1.40;;;22.40;93.10;;;;;;6212959;23;20361;-77
2023/08/01 12:22:33;;;;;;;2.80;1.20;;;22.40;92.90;;;;;;6213516;23;20414;-78
2023/08/01 12:24:58;;;;;;;3.13;1.45;;;22.40;93.20;;;;;;6212197;23;20015;-80
2023/08/01 12:27:24;;;;;;;3.88;0.90;;;22.20;93.10;;;;;;6211586;23;20011;-80
2023/08/01 12:29:49;;;;;;;5.38;1.23;;;22.10;93.20;;;;;;6184391;23;20016;-79
2023/08/01 12:32:15;;;;;;;6.45;1.20;;;21.90;93.60;;;;;;6212222;23;20004;-81
2023/08/01 12:34:41;;;;;;;7.88;1.92;;;21.80;93.90;;;;;;6212976;23;20022;-82
2023/08/01 12:37:06;;;;;;;4.90;1.52;;;21.80;94.20;;;;;;6186406;23;20104;-79
2023/08/01 12:39:32;;;;;;;6.13;1.73;;;21.90;94.30;;;;;;6210866;23;19996;-79